Brillion, Wisconsin
Current Conditions -  °F | °C
As of 9:56 AM on Saturday 25 Oct 2014 (Local Time) from KMTW Reporting Station
Clear Clear  
Wind Chill: 15°   Ceiling: Unl
Heat Index: 15°   Visibility: 10mi
Dew Point:   Wind: 16mph
Humidity: 58%   Direction: 290°WNW
Pressure: 29.84"   Gusts: 22mph
Location:  44.18°N, 88.06°W
Report Text: KMTW 251456Z AUTO 29014G19KT 10SM CLR 15/07 A2984 RMK AO2 SLP128 T01500067 50006
Loading
Personal Weather Stations






























Interactive Weather Map
Tropical Storm Tracking
New forecast layout! Learn more

10-Day Weather Forecast

Advertisements
Track Severe Weather on mobile